Time;durP1;ratioP1;P1;durP2;ratioP2;P2;SDS_P1;SDS_P2;PMS_P1;PMS_P2;Temp;Humidity;BMP_temperature;BMP_pressure;BME280_temperature;BME280_humidity;BME280_pressure;Samples;Min_cycle;Max_cycle;Signal;HPM_P1;HPM_P2
2023/06/14 00:00:18;;;;;;;7.65;4.55;;;;;;;19.13;68.83;99051.41;5007637;28;20482;-92
2023/06/14 00:02:44;;;;;;;5.03;4.03;;;;;;;19.08;69.06;99062.53;5006955;28;20029;-92
2023/06/14 00:05:11;;;;;;;8.70;4.68;;;;;;;19.01;69.13;99059.53;4990601;28;20009;-92
2023/06/14 00:07:44;;;;;;;7.05;5.13;;;;;;;18.85;69.46;99053.06;4991056;28;20120;-92
2023/06/14 00:10:12;;;;;;;5.78;4.50;;;;;;;18.94;68.93;99045.59;5007678;28;20036;-92
2023/06/14 00:12:38;;;;;;;12.25;4.70;;;;;;;18.94;69.28;99051.84;4989714;28;20025;-92
2023/06/14 00:15:04;;;;;;;7.22;4.90;;;;;;;18.88;69.58;99055.13;4990321;28;20021;-92
2023/06/14 00:17:31;;;;;;;8.90;4.70;;;;;;;19.02;68.91;99058.38;4990571;28;20120;-92
2023/06/14 00:20:00;;;;;;;6.35;4.70;;;;;;;18.93;69.29;99047.53;4991216;28;20041;-92
2023/06/14 00:22:25;;;;;;;7.18;4.72;;;;;;;19.00;68.99;99049.72;4991982;28;20021;-91
2023/06/14 00:24:51;;;;;;;7.40;4.82;;;;;;;18.98;68.99;99050.06;4990187;28;20032;-92
2023/06/14 00:27:17;;;;;;;8.95;4.85;;;;;;;19.06;68.99;99047.63;4990395;28;20116;-92
2023/06/14 00:29:42;;;;;;;6.13;4.72;;;;;;;19.15;68.42;99061.97;5005167;28;20557;-92
2023/06/14 00:32:08;;;;;;;5.97;4.45;;;;;;;19.21;67.97;99063.38;4988266;28;20049;-92
2023/06/14 00:34:33;;;;;;;10.50;5.20;;;;;;;19.14;67.91;99057.66;4990376;28;20025;-93
2023/06/14 00:36:59;;;;;;;7.60;4.90;;;;;;;18.99;68.64;99042.69;4989296;28;20029;-92
2023/06/14 00:39:25;;;;;;;6.03;4.70;;;;;;;18.96;68.48;99035.16;4989702;28;20488;-93
2023/06/14 00:41:50;;;;;;;8.00;5.25;;;;;;;19.03;68.39;99043.63;5005217;28;20396;-92
2023/06/14 00:44:16;;;;;;;12.07;5.50;;;;;;;18.77;69.06;99028.19;4989499;28;20511;-93
2023/06/14 00:46:41;;;;;;;7.57;5.20;;;;;;;18.62;69.90;99031.50;4995944;28;20028;-92
2023/06/14 00:49:07;;;;;;;7.32;4.80;;;;;;;18.50;70.36;99034.94;5025818;28;20025;-92
2023/06/14 00:51:32;;;;;;;9.57;4.93;;;;;;;18.61;69.97;99029.91;5041290;28;20086;-93
2023/06/14 00:53:57;;;;;;;8.05;5.03;;;;;;;18.48;70.94;99037.19;5041723;28;20021;-93
2023/06/14 00:56:23;;;;;;;7.70;5.10;;;;;;;18.54;70.43;99032.38;5024999;28;20021;-93
2023/06/14 00:58:50;;;;;;;10.02;4.93;;;;;;;18.55;70.88;99042.13;5042122;28;20037;-92
2023/06/14 01:01:16;;;;;;;9.18;5.03;;;;;;;18.32;71.31;99036.16;5057197;28;20024;-92
2023/06/14 01:03:41;;;;;;;8.60;5.07;;;;;;;18.26;71.52;99035.56;5042097;28;20028;-92
2023/06/14 01:06:26;;;;;;;7.22;5.28;;;;;;;18.21;71.97;99033.00;5042760;28;20029;-92
2023/06/14 01:09:20;;;;;;;12.98;5.63;;;;;;;18.37;71.63;99033.25;5025679;28;20040;-94
2023/06/14 01:12:13;;;;;;;7.68;5.25;;;;;;;18.26;72.03;99038.28;5041136;28;20545;-93
2023/06/14 01:14:39;;;;;;;9.93;5.72;;;;;;;18.08;72.17;99023.13;5040938;28;20025;-92
2023/06/14 01:17:05;;;;;;;9.40;6.50;;;;;;;18.11;72.79;99036.88;5024484;28;20031;-93
2023/06/14 01:19:31;;;;;;;7.32;5.03;;;;;;;18.09;72.52;99022.78;5041919;28;20048;-92
2023/06/14 01:21:57;;;;;;;9.30;5.68;;;;;;;18.11;72.80;99027.91;5024241;28;20028;-92
2023/06/14 01:24:25;;;;;;;8.20;5.70;;;;;;;17.96;73.17;99019.16;5041211;28;20013;-93
2023/06/14 01:26:55;;;;;;;8.27;5.88;;;;;;;17.88;73.62;99022.72;5025317;28;20033;-92
2023/06/14 01:29:22;;;;;;;9.02;5.72;;;;;;;17.96;73.41;99027.34;5056979;28;20233;-92
2023/06/14 01:31:47;;;;;;;10.98;6.00;;;;;;;17.97;72.68;99019.94;5019713;28;20049;-92
2023/06/14 01:34:13;;;;;;;8.82;5.97;;;;;;;17.97;73.04;99023.50;5004041;28;20029;-93
2023/06/14 01:36:38;;;;;;;9.18;5.93;;;;;;;17.82;73.53;99023.19;5004464;28;20025;-93
2023/06/14 01:39:04;;;;;;;11.63;6.45;;;;;;;17.74;74.15;99027.53;5005506;28;20021;-92
2023/06/14 01:41:29;;;;;;;9.70;6.53;;;;;;;17.74;74.08;99022.09;5005355;28;20108;-92
2023/06/14 01:43:55;;;;;;;9.02;6.38;;;;;;;17.73;74.42;99023.22;5005002;28;20048;-93
2023/06/14 01:46:20;;;;;;;11.60;7.10;;;;;;;17.70;74.89;99018.41;5020861;28;20495;-92
2023/06/14 01:48:46;;;;;;;10.82;6.30;;;;;;;17.68;74.60;99012.50;5004723;28;20099;-92
2023/06/14 01:51:11;;;;;;;14.00;6.65;;;;;;;17.67;74.80;99019.88;5004347;28;20048;-92
2023/06/14 01:53:37;;;;;;;9.93;6.25;;;;;;;17.65;75.10;99021.31;5003629;28;20030;-93
2023/06/14 01:56:03;;;;;;;11.43;6.22;;;;;;;17.65;74.62;99018.59;5005371;28;20032;-92
2023/06/14 01:58:28;;;;;;;7.05;5.28;;;;;;;17.91;74.09;99040.34;5020656;28;20029;-93
2023/06/14 02:00:55;;;;;;;9.27;6.10;;;;;;;17.90;73.54;99041.47;5004125;28;20032;-93
2023/06/14 02:03:21;;;;;;;8.60;5.90;;;;;;;17.82;74.28;99042.25;5003843;28;20479;-92
2023/06/14 02:05:47;;;;;;;9.00;5.80;;;;;;;17.69;74.94;99042.13;5019913;28;20045;-93
2023/06/14 02:08:12;;;;;;;9.15;5.85;;;;;;;17.61;75.34;99037.50;5002705;28;20029;-93
2023/06/14 02:10:37;;;;;;;9.68;6.15;;;;;;;17.57;75.72;99040.06;5003930;28;20041;-92
2023/06/14 02:13:03;;;;;;;10.48;6.30;;;;;;;17.53;75.67;99035.59;5004290;28;20476;-92
2023/06/14 02:15:33;;;;;;;8.80;6.03;;;;;;;17.52;75.89;99025.84;5005316;28;20025;-92
2023/06/14 02:18:00;;;;;;;10.85;7.18;;;;;;;17.33;76.44;99031.63;5021761;28;20029;-92
2023/06/14 02:20:26;;;;;;;9.82;6.63;;;;;;;17.38;75.67;99028.72;5004206;28;20530;-92
2023/06/14 02:22:51;;;;;;;11.50;6.93;;;;;;;17.42;76.14;99045.22;5003705;28;20014;-93
2023/06/14 02:25:17;;;;;;;12.30;7.85;;;;;;;17.43;75.30;99030.47;5004050;28;20079;-93
2023/06/14 02:27:42;;;;;;;11.88;6.38;;;;;;;17.62;75.43;99043.72;5004799;28;20029;-93
2023/06/14 02:30:08;;;;;;;9.65;6.57;;;;;;;17.46;75.31;99038.81;5003025;28;20029;-93
2023/06/14 02:32:35;;;;;;;8.90;6.07;;;;;;;17.45;75.78;99042.66;5003580;28;20416;-92
2023/06/14 02:35:01;;;;;;;12.98;6.40;;;;;;;17.34;76.28;99042.16;4987715;28;20388;-92
2023/06/14 02:37:26;;;;;;;8.82;6.95;;;;;;;17.39;75.81;99046.66;4986653;28;20045;-92
2023/06/14 02:39:52;;;;;;;9.43;6.70;;;;;;;17.46;75.52;99044.25;4987277;28;20029;-93
2023/06/14 02:42:17;;;;;;;9.77;6.50;;;;;;;17.34;76.02;99052.25;4987123;28;20025;-93
2023/06/14 02:44:43;;;;;;;11.30;7.32;;;;;;;17.31;75.82;99042.03;4986124;28;20494;-93
2023/06/14 02:47:09;;;;;;;10.57;6.70;;;;;;;17.31;76.17;99047.47;4986955;28;20033;-93
2023/06/14 02:49:35;;;;;;;9.85;7.75;;;;;;;17.27;76.38;99054.69;4987431;28;20036;-92
2023/06/14 02:52:00;;;;;;;9.45;7.32;;;;;;;17.29;76.35;99060.59;5004182;28;20037;-93
2023/06/14 02:54:25;;;;;;;12.32;6.93;;;;;;;17.33;76.68;99075.16;4987967;28;20037;-92
2023/06/14 02:56:51;;;;;;;11.40;7.50;;;;;;;17.27;76.97;99071.81;4988409;28;20033;-92
2023/06/14 02:59:16;;;;;;;10.32;7.15;;;;;;;17.19;77.15;99060.91;5002768;28;20029;-93
2023/06/14 03:01:42;;;;;;;9.95;6.80;;;;;;;17.28;76.90;99078.03;4986733;28;20037;-92
2023/06/14 03:04:08;;;;;;;12.38;6.93;;;;;;;17.31;77.16;99088.28;4987932;28;20029;-93
2023/06/14 03:06:34;;;;;;;11.98;7.60;;;;;;;17.21;77.26;99073.09;5002809;28;20037;-93
2023/06/14 03:09:04;;;;;;;11.65;6.18;;;;;;;17.24;76.76;99079.78;5004780;28;20472;-93
2023/06/14 03:11:30;;;;;;;9.85;6.43;;;;;;;17.14;76.91;99070.84;5004552;28;20602;-93
2023/06/14 03:13:56;;;;;;;10.55;6.15;;;;;;;17.27;76.80;99081.91;4987713;28;20037;-91
2023/06/14 03:16:23;;;;;;;9.65;6.22;;;;;;;17.22;76.82;99082.03;4987740;28;20025;-91
2023/06/14 03:18:52;;;;;;;11.38;6.70;;;;;;;17.20;76.68;99076.13;4989572;28;20033;-92
2023/06/14 03:21:19;;;;;;;11.35;6.28;;;;;;;17.17;77.02;99081.06;4992280;28;20387;-92
2023/06/14 03:23:44;;;;;;;9.55;6.30;;;;;;;17.32;77.17;99098.84;4991940;28;20076;-91
2023/06/14 03:26:14;;;;;;;12.07;6.55;;;;;;;17.37;76.10;99087.03;4990853;28;20040;-91
2023/06/14 03:28:41;;;;;;;19.42;9.70;;;;;;;17.32;76.12;99084.44;5006670;28;20021;-90
2023/06/14 03:31:06;;;;;;;8.73;6.60;;;;;;;17.42;76.13;99088.78;4992496;28;20044;-92
2023/06/14 03:33:32;;;;;;;9.75;6.70;;;;;;;17.53;75.59;99095.47;5018131;28;20025;-92
2023/06/14 03:35:57;;;;;;;9.27;6.72;;;;;;;17.64;75.49;99117.72;5011143;28;20017;-90
2023/06/14 03:38:23;;;;;;;17.08;7.10;;;;;;;17.49;75.43;99100.78;5007929;28;20045;-91
2023/06/14 03:40:49;;;;;;;8.93;6.85;;;;;;;17.61;75.18;99108.28;5027275;28;20036;-92
2023/06/14 03:43:14;;;;;;;19.33;8.00;;;;;;;17.75;74.98;99103.47;5026783;28;20041;-91
2023/06/14 03:45:40;;;;;;;12.63;6.90;;;;;;;17.99;74.32;99121.22;5026549;28;20025;-92
2023/06/14 03:48:06;;;;;;;8.93;6.63;;;;;;;17.86;75.01;99122.22;5013294;28;20470;-92
2023/06/14 03:50:32;;;;;;;12.95;6.40;;;;;;;17.80;74.55;99107.94;5023634;28;20040;-92
2023/06/14 03:52:58;;;;;;;10.80;6.95;;;;;;;18.01;74.36;99124.44;5012807;28;20492;-92
2023/06/14 03:55:25;;;;;;;12.55;6.63;;;;;;;18.02;73.98;99120.59;5023253;28;20715;-91
2023/06/14 03:57:51;;;;;;;8.60;6.10;;;;;;;18.28;73.60;99123.25;5012403;28;20025;-91
2023/06/14 04:00:18;;;;;;;12.63;6.40;;;;;;;18.32;73.00;99124.22;5009028;28;20025;-92
2023/06/14 04:02:44;;;;;;;9.25;7.07;;;;;;;18.23;73.20;99115.25;5025258;28;20399;-93
2023/06/14 04:05:09;;;;;;;10.93;6.80;;;;;;;18.37;72.34;99115.84;5026258;28;20021;-92
2023/06/14 04:07:39;;;;;;;9.80;6.80;;;;;;;18.48;72.54;99120.94;5026895;28;20021;-93
2023/06/14 04:10:06;;;;;;;9.65;7.40;;;;;;;18.61;72.28;99119.91;5022646;28;20057;-93
2023/06/14 04:12:32;;;;;;;14.38;7.65;;;;;;;18.51;72.90;99128.44;5022931;28;20028;-94
2023/06/14 04:14:57;;;;;;;9.60;7.53;;;;;;;18.53;72.59;99131.63;5008857;28;20021;-92
2023/06/14 04:17:23;;;;;;;13.90;8.23;;;;;;;18.50;72.43;99127.66;5026424;28;20036;-93
2023/06/14 04:19:48;;;;;;;11.80;7.60;;;;;;;18.19;73.80;99119.75;5016210;28;20037;-93
2023/06/14 04:22:13;;;;;;;12.98;7.30;;;;;;;18.31;73.47;99121.81;5012694;28;20056;-94
2023/06/14 04:24:39;;;;;;;10.25;8.13;;;;;;;18.18;73.63;99123.59;4990914;28;20022;-89
2023/06/14 04:27:04;;;;;;;9.35;7.55;;;;;;;18.31;73.31;99125.31;5026299;28;20017;-89
2023/06/14 04:29:31;;;;;;;10.75;7.97;;;;;;;18.27;73.31;99124.38;5011421;28;20033;-87
2023/06/14 04:31:59;;;;;;;12.40;8.60;;;;;;;18.30;73.24;99139.25;4994289;28;20061;-89
2023/06/14 04:34:29;;;;;;;12.90;8.57;;;;;;;18.35;72.76;99131.72;5001614;28;20040;-90
2023/06/14 04:36:59;;;;;;;32.20;10.35;;;;;;;18.22;73.13;99131.91;5033645;28;20025;-90
2023/06/14 04:39:25;;;;;;;12.23;8.18;;;;;;;18.32;73.02;99151.47;4986210;28;20515;-90
2023/06/14 04:41:52;;;;;;;9.90;8.00;;;;;;;18.38;72.86;99136.50;4986461;28;20026;-90
2023/06/14 04:44:19;;;;;;;12.57;8.15;;;;;;;18.53;72.48;99145.28;4986714;28;20041;-88
2023/06/14 04:46:48;;;;;;;17.70;9.90;;;;;;;18.52;72.11;99144.47;4984320;28;20018;-89
2023/06/14 04:49:23;;;;;;;14.98;7.88;;;;;;;18.76;71.51;99157.53;4985894;28;20542;-88
2023/06/14 04:51:57;;;;;;;13.18;8.13;;;;;;;18.82;70.72;99146.47;4986470;28;20044;-88
2023/06/14 04:54:23;;;;;;;17.02;8.65;;;;;;;18.90;70.44;99143.69;4988634;28;20025;-89
2023/06/14 04:56:49;;;;;;;11.48;8.43;;;;;;;18.92;70.68;99157.00;5024472;28;20022;-88
2023/06/14 04:59:14;;;;;;;13.63;8.63;;;;;;;18.98;70.00;99147.50;5003150;28;20029;-89
2023/06/14 05:01:40;;;;;;;14.32;8.40;;;;;;;19.07;69.82;99163.81;5017136;28;20084;-87
2023/06/14 05:04:06;;;;;;;11.82;8.82;;;;;;;19.16;69.55;99159.91;5000079;28;20128;-88
2023/06/14 05:06:31;;;;;;;16.35;9.65;;;;;;;19.14;69.01;99148.53;5005254;28;20469;-86
2023/06/14 05:08:57;;;;;;;12.20;9.50;;;;;;;19.35;68.48;99161.41;5023329;28;20037;-87
2023/06/14 05:11:26;;;;;;;10.05;7.68;;;;;;;19.34;68.29;99155.16;5018355;28;20033;-89
2023/06/14 05:13:52;;;;;;;16.35;7.57;;;;;;;19.34;68.08;99167.97;5001966;28;20033;-90
2023/06/14 05:16:36;;;;;;;10.27;7.60;;;;;;;19.32;69.07;99181.16;5035108;28;20505;-91
2023/06/14 05:19:04;;;;;;;13.60;7.45;;;;;;;19.44;68.45;99173.03;5002397;28;20049;-88
2023/06/14 05:21:34;;;;;;;12.05;8.07;;;;;;;19.30;67.75;99161.56;5001963;28;20087;-88
2023/06/14 05:24:00;;;;;;;11.95;7.88;;;;;;;19.43;66.99;99176.91;4987580;28;20034;-88
2023/06/14 05:26:28;;;;;;;10.38;7.50;;;;;;;19.46;67.00;99176.25;4986084;28;20030;-89
2023/06/14 05:29:06;;;;;;;11.38;7.32;;;;;;;19.53;67.71;99173.78;5001026;28;20092;-91
2023/06/14 05:31:32;;;;;;;10.13;7.85;;;;;;;19.45;67.38;99174.66;5039128;28;20060;-87
2023/06/14 05:34:00;;;;;;;9.85;7.43;;;;;;;19.42;66.87;99169.06;5014399;28;20060;-89
2023/06/14 05:36:27;;;;;;;10.07;7.57;;;;;;;19.39;67.64;99192.38;5023726;28;20047;-88
2023/06/14 05:38:59;;;;;;;12.10;7.47;;;;;;;19.25;68.09;99194.53;5013083;28;20025;-86
2023/06/14 05:41:28;;;;;;;9.43;7.50;;;;;;;19.14;68.01;99184.00;5013196;28;20487;-88
2023/06/14 05:43:55;;;;;;;11.65;7.97;;;;;;;19.45;66.99;99201.16;5058547;28;20067;-88
2023/06/14 05:46:24;;;;;;;10.25;8.77;;;;;;;19.55;66.99;99207.03;5017347;28;20035;-88
2023/06/14 05:48:52;;;;;;;12.77;8.63;;;;;;;19.31;68.24;99193.22;5013035;28;20128;-88
2023/06/14 05:51:20;;;;;;;16.00;10.38;;;;;;;19.48;68.51;99208.69;5022127;28;20032;-95
2023/06/14 05:53:51;;;;;;;16.33;9.93;;;;;;;19.27;68.08;99176.69;5053263;28;20702;-95
2023/06/14 05:56:22;;;;;;;13.65;8.95;;;;;;;19.51;67.92;99197.91;5048874;28;20063;-96
2023/06/14 05:58:51;;;;;;;17.20;11.02;;;;;;;19.37;67.97;99187.22;5066641;28;20052;-95
2023/06/14 06:04:35;;;;;;;14.93;8.80;;;;;;;19.26;69.50;99226.16;5055460;28;20040;-95
2023/06/14 06:09:53;;;;;;;11.32;8.05;;;;;;;19.70;67.72;99232.16;4992866;28;20022;-96
2023/06/14 06:12:22;;;;;;;21.17;8.52;;;;;;;19.65;67.47;99214.03;5025035;28;20033;-96
2023/06/14 06:18:59;;;;;;;14.82;8.43;;;;;;;19.81;66.67;99238.06;4985916;28;20038;-95
2023/06/14 06:21:31;;;;;;;12.95;7.95;;;;;;;19.67;65.88;99214.50;4989882;28;20026;-96
2023/06/14 06:24:06;;;;;;;9.90;7.22;;;;;;;19.90;64.96;99217.72;4956857;28;20069;-96
2023/06/14 06:26:34;;;;;;;10.40;6.65;;;;;;;20.12;63.38;99229.44;4952839;29;20035;-96
2023/06/14 06:29:01;;;;;;;13.93;8.82;;;;;;;20.04;62.92;99208.44;4935907;29;20423;-92
2023/06/14 06:31:27;;;;;;;13.23;7.35;;;;;;;20.15;62.88;99221.38;4952787;28;20031;-96
2023/06/14 06:33:54;;;;;;;101.45;60.88;;;;;;;20.39;61.91;99215.16;4938216;28;20113;-93
2023/06/14 06:36:21;;;;;;;17.20;8.55;;;;;;;20.37;63.61;99227.56;4940445;28;20082;-93
2023/06/14 06:38:47;;;;;;;21.80;9.57;;;;;;;20.48;62.99;99212.34;4935282;29;20045;-96
2023/06/14 06:41:34;;;;;;;12.10;8.60;;;;;;;20.64;63.08;99242.59;4945352;28;20080;-93
2023/06/14 06:44:41;;;;;;;14.50;8.57;;;;;;;20.53;63.42;99235.94;4954199;28;20073;-93
2023/06/14 06:47:20;;;;;;;10.55;7.72;;;;;;;20.71;61.83;99245.59;4992750;28;20042;-93
2023/06/14 06:49:49;;;;;;;17.20;8.65;;;;;;;20.77;62.21;99225.09;4976756;28;20382;-94
2023/06/14 06:52:24;;;;;;;12.23;9.25;;;;;;;20.96;61.31;99219.06;5016428;28;20044;-93
2023/06/14 06:54:57;;;;;;;17.98;9.60;;;;;;;21.23;60.96;99240.59;5047206;28;20100;-91
2023/06/14 06:57:25;;;;;;;28.17;15.52;;;;;;;21.30;59.82;99208.75;5040885;28;20051;-93
2023/06/14 06:59:53;;;;;;;20.23;8.77;;;;;;;21.71;59.06;99237.03;5032962;28;20048;-95
2023/06/14 07:02:21;;;;;;;18.08;9.38;;;;;;;21.46;58.56;99219.84;5049636;28;20049;-94
2023/06/14 07:04:55;;;;;;;13.45;7.13;;;;;;;21.60;58.11;99208.50;5047955;28;20040;-95
2023/06/14 07:07:20;;;;;;;18.23;8.23;;;;;;;22.12;57.46;99229.59;5045814;28;20040;-92
2023/06/14 07:09:50;;;;;;;25.08;16.55;;;;;;;22.09;56.49;99191.09;5022176;28;20088;-88
2023/06/14 07:12:18;;;;;;;8.30;7.15;;;;;;;22.37;55.86;99219.34;5046681;28;20032;-88
2023/06/14 07:14:46;;;;;;;9.98;6.85;;;;;;;22.62;54.80;99213.69;5047011;28;20059;-88
2023/06/14 07:17:18;;;;;;;12.95;8.57;;;;;;;22.46;54.98;99201.91;5047987;28;20036;-88
2023/06/14 07:19:46;;;;;;;11.07;7.68;;;;;;;22.26;55.53;99196.28;5043539;28;20093;-88
2023/06/14 07:22:15;;;;;;;10.63;8.00;;;;;;;22.07;55.83;99187.91;5024572;28;20199;-88
2023/06/14 07:25:02;;;;;;;10.77;7.28;;;;;;;22.24;55.83;99189.56;5035877;28;20040;-90
2023/06/14 07:30:52;;;;;;;10.13;7.07;;;;;;;22.30;54.75;99193.66;5059973;28;20071;-88
2023/06/14 07:33:18;;;;;;;10.48;7.55;;;;;;;22.70;53.92;99220.97;5026007;28;20024;-87
2023/06/14 07:35:43;;;;;;;10.27;7.10;;;;;;;22.61;53.31;99176.41;5024678;28;20344;-88
2023/06/14 07:38:10;;;;;;;12.15;7.35;;;;;;;22.88;52.92;99190.41;5026010;28;20056;-88
2023/06/14 07:40:36;;;;;;;13.45;8.82;;;;;;;23.03;53.41;99195.09;5044886;28;20029;-90
2023/06/14 07:43:06;;;;;;;16.80;8.70;;;;;;;23.03;53.21;99178.63;5026708;28;20517;-88
2023/06/14 07:45:32;;;;;;;16.25;8.90;;;;;;;23.39;52.67;99198.69;5025481;28;20037;-88
2023/06/14 07:47:58;;;;;;;11.52;8.25;;;;;;;23.81;52.00;99195.28;5024512;28;20032;-88
2023/06/14 07:50:23;;;;;;;11.27;8.02;;;;;;;24.06;50.15;99192.22;5043263;28;20029;-87
2023/06/14 07:52:58;;;;;;;12.93;9.25;;;;;;;24.16;50.49;99197.16;5015473;28;20043;-88
2023/06/14 07:55:25;;;;;;;17.85;9.35;;;;;;;24.03;50.29;99187.44;5040188;28;20080;-88
2023/06/14 07:57:51;;;;;;;9.82;8.05;;;;;;;24.43;48.99;99198.03;5020523;28;20368;-89
2023/06/14 08:00:20;;;;;;;14.40;8.38;;;;;;;24.44;48.78;99187.81;5029347;28;20072;-88
2023/06/14 08:03:04;;;;;;;20.52;16.00;;;;;;;24.60;48.42;99191.28;5046172;28;20028;-91
2023/06/14 08:05:31;;;;;;;13.13;7.15;;;;;;;24.78;47.80;99189.63;5036942;28;20021;-90
2023/06/14 08:08:00;;;;;;;9.45;7.03;;;;;;;24.89;47.25;99211.81;5035003;28;20032;-88
2023/06/14 08:10:26;;;;;;;12.65;7.97;;;;;;;24.96;47.21;99213.88;5026515;28;20045;-87
2023/06/14 08:12:52;;;;;;;9.60;7.00;;;;;;;24.98;46.60;99208.81;5010150;28;20101;-91
2023/06/14 08:15:18;;;;;;;8.88;6.55;;;;;;;25.01;46.72;99216.34;5010568;28;20486;-86
2023/06/14 08:18:01;;;;;;;9.07;6.57;;;;;;;24.93;47.61;99198.13;5010408;28;20088;-89
2023/06/14 08:20:27;;;;;;;8.38;6.40;;;;;;;24.59;48.14;99201.50;5011470;28;20122;-91
2023/06/14 08:22:59;;;;;;;8.32;6.95;;;;;;;24.73;48.54;99203.69;5014907;28;20538;-91
2023/06/14 08:25:24;;;;;;;9.43;6.10;;;;;;;24.79;48.60;99193.16;5031542;28;20110;-93
2023/06/14 08:27:50;;;;;;;10.63;6.55;;;;;;;24.60;48.50;99191.28;5039436;28;20053;-90
2023/06/14 08:30:17;;;;;;;7.97;5.97;;;;;;;24.64;48.41;99210.63;5034020;28;20503;-90
2023/06/14 08:32:43;;;;;;;7.03;5.65;;;;;;;24.89;48.87;99200.03;5030690;28;20413;-91
2023/06/14 08:35:08;;;;;;;10.27;6.03;;;;;;;24.76;48.12;99210.44;5032019;28;20028;-89
2023/06/14 08:37:39;;;;;;;16.25;6.60;;;;;;;24.95;48.75;99198.53;5033208;28;20021;-89
2023/06/14 08:40:26;;;;;;;13.55;6.43;;;;;;;24.80;48.69;99192.81;5033509;28;20026;-88
2023/06/14 08:43:11;;;;;;;10.40;6.30;;;;;;;24.91;48.35;99194.94;5029978;28;20036;-85
2023/06/14 08:45:45;;;;;;;8.43;5.40;;;;;;;25.13;47.40;99207.88;5028800;28;20106;-88
2023/06/14 08:48:17;;;;;;;8.32;5.25;;;;;;;25.49;46.26;99199.38;5045489;28;20112;-89
2023/06/14 08:50:46;;;;;;;8.43;6.18;;;;;;;25.11;48.90;99215.72;5010876;28;20440;-90
2023/06/14 08:53:13;;;;;;;8.60;4.93;;;;;;;25.06;46.90;99196.75;5011817;28;20032;-89
2023/06/14 08:55:39;;;;;;;9.00;4.80;;;;;;;25.04;47.32;99190.81;5033233;28;20035;-87
2023/06/14 08:58:05;;;;;;;7.03;5.18;;;;;;;25.11;47.40;99210.22;5031699;28;20039;-87
2023/06/14 09:00:34;;;;;;;10.27;4.85;;;;;;;25.20;47.20;99180.44;5031669;28;20115;-88
2023/06/14 09:02:59;;;;;;;7.50;5.57;;;;;;;25.37;46.61;99201.16;5047718;28;20090;-89
2023/06/14 09:05:32;;;;;;;7.70;4.68;;;;;;;25.33;45.76;99170.00;5031560;28;20025;-88
2023/06/14 09:08:31;;;;;;;8.75;4.68;;;;;;;25.86;45.30;99206.91;5044624;28;20039;-88
2023/06/14 09:11:00;;;;;;;9.60;5.68;;;;;;;25.69;46.35;99175.19;4998094;28;20062;-88
2023/06/14 09:13:35;;;;;;;11.05;5.13;;;;;;;26.10;45.94;99195.41;4995479;28;20035;-89
2023/06/14 09:16:01;;;;;;;8.30;5.68;;;;;;;25.95;46.09;99180.66;4995481;28;20056;-87
2023/06/14 09:18:35;;;;;;;6.93;5.05;;;;;;;26.08;45.47;99216.28;5006147;28;20040;-86
2023/06/14 09:21:07;;;;;;;9.68;5.65;;;;;;;25.90;44.20;99189.28;5005991;28;20037;-88
2023/06/14 09:23:40;;;;;;;14.98;6.88;;;;;;;25.78;45.60;99198.56;4990815;28;20033;-88
2023/06/14 09:26:19;;;;;;;12.10;5.28;;;;;;;26.11;45.57;99197.00;4990163;28;20017;-87
2023/06/14 09:28:48;;;;;;;5.88;4.70;;;;;;;26.23;44.35;99201.47;4991772;28;20463;-87
2023/06/14 09:31:21;;;;;;;5.38;4.07;;;;;;;25.95;43.59;99193.66;4988975;28;20040;-87
2023/06/14 09:33:48;;;;;;;5.15;3.88;;;;;;;26.30;41.53;99193.25;4986254;28;20061;-87
2023/06/14 09:36:18;;;;;;;5.65;3.90;;;;;;;26.44;41.78;99189.84;5003980;28;21767;-87
2023/06/14 09:38:57;;;;;;;5.00;3.85;;;;;;;26.71;41.41;99197.97;4994154;28;20446;-88
2023/06/14 09:41:44;;;;;;;5.75;3.80;;;;;;;26.89;40.96;99207.22;5032298;28;20029;-85
2023/06/14 09:44:10;;;;;;;5.32;3.92;;;;;;;26.86;40.84;99205.22;5017347;28;20038;-87
2023/06/14 09:46:36;;;;;;;4.22;3.80;;;;;;;26.87;40.76;99200.50;4968760;28;20030;-86
2023/06/14 09:49:02;;;;;;;4.22;3.42;;;;;;;27.21;40.48;99204.69;4988453;28;20021;-88
2023/06/14 09:51:45;;;;;;;5.40;3.33;;;;;;;27.41;39.94;99196.97;4984872;28;20495;-90
2023/06/14 09:54:16;;;;;;;5.20;4.32;;;;;;;27.37;40.26;99174.03;5000676;28;20092;-90
2023/06/14 09:56:44;;;;;;;;;;;;;;;27.59;39.42;99190.72;5018723;28;20022;-88
2023/06/14 09:59:12;;;;;;;6.50;3.90;;;;;;;27.09;39.91;99166.31;5020123;28;19939;-90
2023/06/14 10:01:47;;;;;;;5.50;3.95;;;;;;;27.24;40.19;99171.97;5000630;28;20104;-88
2023/06/14 10:04:39;;;;;;;5.90;4.05;;;;;;;27.10;41.36;99164.34;5003325;28;20045;-88
2023/06/14 10:07:09;;;;;;;12.73;5.32;;;;;;;26.85;42.87;99175.22;5018615;28;20057;-90
2023/06/14 10:09:54;;;;;;;;;;;;;;;;;;;;;
2023/06/14 10:16:21;;;;;;;9.55;5.97;;;;;;;27.09;40.43;99180.13;5012810;28;20440;-88
2023/06/14 10:18:51;;;;;;;6.13;3.47;;;;;;;27.23;39.98;99167.59;5039679;28;20029;-89
2023/06/14 10:21:53;;;;;;;8.30;3.10;;;;;;;26.66;40.89;99146.66;5014397;28;20047;-86
2023/06/14 10:24:24;;;;;;;4.43;2.95;;;;;;;26.84;41.30;99173.66;5018609;28;20037;-90
2023/06/14 10:27:04;;;;;;;5.43;2.90;;;;;;;26.92;40.18;99165.03;5011566;28;20250;-88
2023/06/14 10:29:32;;;;;;;8.98;3.70;;;;;;;27.12;40.20;99148.97;5033206;28;20079;-89
2023/06/14 10:32:18;;;;;;;4.45;3.03;;;;;;;27.31;39.28;99136.06;5016028;28;20033;-89
2023/06/14 10:34:44;;;;;;;6.15;2.83;;;;;;;27.66;38.42;99160.31;5035065;28;20116;-94
2023/06/14 10:37:13;;;;;;;7.30;3.15;;;;;;;27.98;37.72;99170.75;5014176;28;20091;-94
2023/06/14 10:39:42;;;;;;;5.28;2.80;;;;;;;27.85;38.08;99178.59;4996514;28;20037;-90
2023/06/14 10:42:08;;;;;;;4.13;2.70;;;;;;;27.44;38.58;99170.50;5028126;28;20025;-88
2023/06/14 10:44:49;;;;;;;6.40;2.85;;;;;;;27.56;38.08;99172.16;5011072;28;20055;-88
2023/06/14 10:47:38;;;;;;;4.20;2.70;;;;;;;27.59;37.91;99172.16;5035377;28;20028;-87
2023/06/14 10:50:05;;;;;;;6.65;2.63;;;;;;;27.79;37.51;99169.88;5024299;28;20462;-87
2023/06/14 10:52:35;;;;;;;7.18;3.25;;;;;;;27.47;37.81;99142.06;5027354;28;20168;-87
2023/06/14 10:55:21;;;;;;;6.20;2.60;;;;;;;27.32;38.09;99143.19;5028971;28;20029;-88
2023/06/14 10:57:58;;;;;;;4.15;2.60;;;;;;;27.34;37.38;99135.28;5025160;28;20025;-87
2023/06/14 11:00:26;;;;;;;3.08;2.15;;;;;;;27.64;37.01;99137.00;4995113;28;20045;-88
2023/06/14 11:03:10;;;;;;;4.88;2.22;;;;;;;27.64;37.05;99172.94;5022547;28;20044;-88
2023/06/14 11:06:14;;;;;;;4.05;2.20;;;;;;;27.44;35.57;99150.34;5051551;28;20029;-88
2023/06/14 11:09:05;;;;;;;3.38;2.20;;;;;;;27.51;36.70;99161.44;5023417;28;20040;-88
2023/06/14 11:11:35;;;;;;;4.53;2.33;;;;;;;27.59;36.35;99152.00;5038549;28;20108;-90
2023/06/14 11:14:02;;;;;;;2.92;2.20;;;;;;;27.40;36.16;99140.06;5011673;28;20033;-86
2023/06/14 11:16:34;;;;;;;2.63;2.10;;;;;;;27.65;35.92;99155.19;5016539;28;20036;-86
2023/06/14 11:19:03;;;;;;;4.43;2.45;;;;;;;27.83;35.85;99153.28;5021639;28;20025;-87
2023/06/14 11:21:31;;;;;;;3.67;2.60;;;;;;;28.06;35.77;99141.09;5007771;28;20024;-87
2023/06/14 11:23:56;;;;;;;3.03;2.38;;;;;;;27.95;35.44;99141.88;4988262;28;20028;-89
2023/06/14 11:26:29;;;;;;;5.43;2.30;;;;;;;28.14;35.55;99143.50;4984623;28;20393;-89
2023/06/14 11:29:15;;;;;;;7.38;2.20;;;;;;;28.37;35.80;99154.22;4993517;28;20111;-87
2023/06/14 11:31:44;;;;;;;3.65;2.10;;;;;;;28.52;34.96;99162.56;5004115;28;20053;-88
2023/06/14 11:34:10;;;;;;;3.30;2.80;;;;;;;28.56;36.35;99157.81;4991565;28;20041;-88
2023/06/14 11:36:36;;;;;;;3.78;2.70;;;;;;;28.08;37.42;99133.19;4995254;28;20018;-89
2023/06/14 11:39:08;;;;;;;3.55;2.95;;;;;;;27.92;38.52;99128.03;4998727;28;20037;-89
2023/06/14 11:41:38;;;;;;;3.78;2.85;;;;;;;27.95;38.31;99132.78;4997957;28;20022;-90
2023/06/14 11:44:30;;;;;;;;;;;;;;;;;;;;;
2023/06/14 11:46:57;;;;;;;3.88;3.20;;;;;;;27.27;38.45;99122.22;5020800;28;20115;-90
2023/06/14 11:49:23;;;;;;;5.82;3.10;;;;;;;27.52;37.79;99124.31;4995674;28;20104;-90
2023/06/14 11:52:12;;;;;;;3.58;2.70;;;;;;;27.36;38.62;99141.22;4997911;28;20021;-88
2023/06/14 11:54:43;;;;;;;4.18;2.58;;;;;;;27.35;38.06;99115.56;5010352;28;20060;-95
2023/06/14 11:57:30;;;;;;;;;;;;;;;27.60;38.65;99137.78;5010418;28;20105;-94
2023/06/14 12:03:18;;;;;;;4.38;2.50;;;;;;;27.20;39.28;99134.00;5045277;28;20052;-92